sensor_id;sensor_type;location;lat;lon;timestamp;P1;durP1;ratioP1;P2;durP2;ratioP2
35110;SDS011;21290;50.158;8.658;2024-03-02T00:00:19;15.23;;;9.38;;
35110;SDS011;21290;50.158;8.658;2024-03-02T00:02:48;14.88;;;9.35;;
35110;SDS011;21290;50.158;8.658;2024-03-02T00:05:17;14.02;;;9.07;;
35110;SDS011;21290;50.158;8.658;2024-03-02T00:07:48;16.35;;;10.05;;
35110;SDS011;21290;50.158;8.658;2024-03-02T00:10:23;15.00;;;9.57;;
35110;SDS011;21290;50.158;8.658;2024-03-02T00:12:55;13.48;;;9.68;;
35110;SDS011;21290;50.158;8.658;2024-03-02T00:15:37;14.57;;;9.70;;
35110;SDS011;21290;50.158;8.658;2024-03-02T00:18:12;14.80;;;9.88;;
35110;SDS011;21290;50.158;8.658;2024-03-02T00:20:42;14.60;;;9.35;;
35110;SDS011;21290;50.158;8.658;2024-03-02T00:23:10;15.45;;;10.48;;
35110;SDS011;21290;50.158;8.658;2024-03-02T00:25:44;17.23;;;10.43;;
35110;SDS011;21290;50.158;8.658;2024-03-02T00:28:14;15.43;;;9.60;;
35110;SDS011;21290;50.158;8.658;2024-03-02T00:33:34;13.88;;;9.85;;
35110;SDS011;21290;50.158;8.658;2024-03-02T00:36:03;14.00;;;10.18;;
35110;SDS011;21290;50.158;8.658;2024-03-02T00:38:31;15.35;;;9.52;;
35110;SDS011;21290;50.158;8.658;2024-03-02T00:40:59;15.80;;;10.10;;
35110;SDS011;21290;50.158;8.658;2024-03-02T00:46:15;16.25;;;10.75;;
35110;SDS011;21290;50.158;8.658;2024-03-02T00:48:48;16.13;;;10.57;;
35110;SDS011;21290;50.158;8.658;2024-03-02T00:51:19;42.28;;;22.95;;
35110;SDS011;21290;50.158;8.658;2024-03-02T00:53:46;19.58;;;13.00;;
35110;SDS011;21290;50.158;8.658;2024-03-02T00:56:12;15.20;;;10.18;;
35110;SDS011;21290;50.158;8.658;2024-03-02T00:58:40;17.42;;;9.60;;
35110;SDS011;21290;50.158;8.658;2024-03-02T01:01:06;15.00;;;9.65;;
35110;SDS011;21290;50.158;8.658;2024-03-02T01:03:34;19.15;;;10.48;;
35110;SDS011;21290;50.158;8.658;2024-03-02T01:06:01;14.88;;;9.77;;
35110;SDS011;21290;50.158;8.658;2024-03-02T01:08:28;16.30;;;10.25;;
35110;SDS011;21290;50.158;8.658;2024-03-02T01:10:55;14.68;;;9.57;;
35110;SDS011;21290;50.158;8.658;2024-03-02T01:13:22;15.10;;;9.98;;
35110;SDS011;21290;50.158;8.658;2024-03-02T01:15:50;15.45;;;10.10;;
35110;SDS011;21290;50.158;8.658;2024-03-02T01:18:16;13.43;;;9.65;;
35110;SDS011;21290;50.158;8.658;2024-03-02T01:20:43;14.45;;;10.00;;
35110;SDS011;21290;50.158;8.658;2024-03-02T01:23:10;14.65;;;10.30;;
35110;SDS011;21290;50.158;8.658;2024-03-02T01:25:36;14.23;;;9.95;;
35110;SDS011;21290;50.158;8.658;2024-03-02T01:28:03;14.10;;;10.02;;
35110;SDS011;21290;50.158;8.658;2024-03-02T01:30:31;14.95;;;10.32;;
35110;SDS011;21290;50.158;8.658;2024-03-02T01:32:57;14.98;;;10.27;;
35110;SDS011;21290;50.158;8.658;2024-03-02T01:35:25;16.25;;;10.60;;
35110;SDS011;21290;50.158;8.658;2024-03-02T01:37:53;17.50;;;10.40;;
35110;SDS011;21290;50.158;8.658;2024-03-02T01:40:20;15.57;;;11.52;;
35110;SDS011;21290;50.158;8.658;2024-03-02T01:42:47;15.90;;;10.20;;
35110;SDS011;21290;50.158;8.658;2024-03-02T01:45:14;13.13;;;10.30;;
35110;SDS011;21290;50.158;8.658;2024-03-02T01:47:41;14.40;;;10.52;;
35110;SDS011;21290;50.158;8.658;2024-03-02T01:50:07;14.32;;;10.27;;
35110;SDS011;21290;50.158;8.658;2024-03-02T01:52:35;15.90;;;10.95;;
35110;SDS011;21290;50.158;8.658;2024-03-02T01:55:01;13.45;;;10.20;;
35110;SDS011;21290;50.158;8.658;2024-03-02T01:57:28;15.88;;;10.52;;
35110;SDS011;21290;50.158;8.658;2024-03-02T01:59:55;13.98;;;10.02;;
35110;SDS011;21290;50.158;8.658;2024-03-02T02:02:22;13.45;;;10.23;;
35110;SDS011;21290;50.158;8.658;2024-03-02T02:04:49;15.15;;;10.43;;
35110;SDS011;21290;50.158;8.658;2024-03-02T02:07:16;15.95;;;11.27;;
35110;SDS011;21290;50.158;8.658;2024-03-02T02:09:43;16.25;;;10.57;;
35110;SDS011;21290;50.158;8.658;2024-03-02T02:12:10;15.35;;;11.10;;
35110;SDS011;21290;50.158;8.658;2024-03-02T02:14:36;17.50;;;11.27;;
35110;SDS011;21290;50.158;8.658;2024-03-02T02:17:03;15.35;;;11.25;;
35110;SDS011;21290;50.158;8.658;2024-03-02T02:19:30;18.75;;;11.45;;
35110;SDS011;21290;50.158;8.658;2024-03-02T02:21:57;15.43;;;10.77;;
35110;SDS011;21290;50.158;8.658;2024-03-02T02:24:23;18.30;;;11.75;;
35110;SDS011;21290;50.158;8.658;2024-03-02T02:26:50;15.27;;;11.80;;
35110;SDS011;21290;50.158;8.658;2024-03-02T02:29:17;20.27;;;12.23;;
35110;SDS011;21290;50.158;8.658;2024-03-02T02:31:44;16.02;;;11.95;;
35110;SDS011;21290;50.158;8.658;2024-03-02T02:34:10;14.57;;;10.93;;
35110;SDS011;21290;50.158;8.658;2024-03-02T02:36:38;16.65;;;11.20;;
35110;SDS011;21290;50.158;8.658;2024-03-02T02:39:06;15.35;;;8.57;;
35110;SDS011;21290;50.158;8.658;2024-03-02T02:41:36;17.60;;;11.63;;
35110;SDS011;21290;50.158;8.658;2024-03-02T02:44:03;15.95;;;11.35;;
35110;SDS011;21290;50.158;8.658;2024-03-02T02:46:30;16.08;;;11.68;;
35110;SDS011;21290;50.158;8.658;2024-03-02T02:48:57;15.57;;;11.35;;
35110;SDS011;21290;50.158;8.658;2024-03-02T02:51:24;16.40;;;11.88;;
35110;SDS011;21290;50.158;8.658;2024-03-02T02:53:51;18.40;;;12.32;;
35110;SDS011;21290;50.158;8.658;2024-03-02T02:56:18;16.95;;;11.77;;
35110;SDS011;21290;50.158;8.658;2024-03-02T02:58:45;16.48;;;11.32;;
35110;SDS011;21290;50.158;8.658;2024-03-02T03:01:12;15.18;;;10.77;;
35110;SDS011;21290;50.158;8.658;2024-03-02T03:03:38;16.08;;;10.85;;
35110;SDS011;21290;50.158;8.658;2024-03-02T03:06:05;18.10;;;12.23;;
35110;SDS011;21290;50.158;8.658;2024-03-02T03:08:32;17.88;;;11.55;;
35110;SDS011;21290;50.158;8.658;2024-03-02T03:10:59;18.20;;;11.05;;
35110;SDS011;21290;50.158;8.658;2024-03-02T03:13:25;19.13;;;9.95;;
35110;SDS011;21290;50.158;8.658;2024-03-02T03:15:52;19.77;;;11.07;;
35110;SDS011;21290;50.158;8.658;2024-03-02T03:18:19;14.65;;;10.32;;
35110;SDS011;21290;50.158;8.658;2024-03-02T03:20:46;16.48;;;11.32;;
35110;SDS011;21290;50.158;8.658;2024-03-02T03:23:13;16.98;;;11.90;;
35110;SDS011;21290;50.158;8.658;2024-03-02T03:25:45;15.45;;;11.18;;
35110;SDS011;21290;50.158;8.658;2024-03-02T03:28:11;17.35;;;11.73;;
35110;SDS011;21290;50.158;8.658;2024-03-02T03:30:38;17.27;;;12.70;;
35110;SDS011;21290;50.158;8.658;2024-03-02T03:33:05;16.55;;;11.63;;
35110;SDS011;21290;50.158;8.658;2024-03-02T03:35:32;15.82;;;12.05;;
35110;SDS011;21290;50.158;8.658;2024-03-02T03:37:59;15.55;;;11.32;;
35110;SDS011;21290;50.158;8.658;2024-03-02T03:40:26;17.20;;;12.35;;
35110;SDS011;21290;50.158;8.658;2024-03-02T03:42:53;17.83;;;12.90;;
35110;SDS011;21290;50.158;8.658;2024-03-02T03:45:22;12.07;;;9.32;;
35110;SDS011;21290;50.158;8.658;2024-03-02T03:47:51;18.20;;;12.90;;
35110;SDS011;21290;50.158;8.658;2024-03-02T03:50:19;18.73;;;12.40;;
35110;SDS011;21290;50.158;8.658;2024-03-02T03:52:46;17.77;;;12.43;;
35110;SDS011;21290;50.158;8.658;2024-03-02T03:55:12;18.55;;;12.07;;
35110;SDS011;21290;50.158;8.658;2024-03-02T03:57:39;17.73;;;12.18;;
35110;SDS011;21290;50.158;8.658;2024-03-02T04:03:07;18.88;;;12.13;;
35110;SDS011;21290;50.158;8.658;2024-03-02T04:05:33;17.02;;;12.02;;
35110;SDS011;21290;50.158;8.658;2024-03-02T04:08:00;17.02;;;12.88;;
35110;SDS011;21290;50.158;8.658;2024-03-02T04:10:27;18.20;;;13.13;;
35110;SDS011;21290;50.158;8.658;2024-03-02T04:12:54;18.27;;;13.00;;
35110;SDS011;21290;50.158;8.658;2024-03-02T04:15:20;20.27;;;13.70;;
35110;SDS011;21290;50.158;8.658;2024-03-02T04:17:49;14.43;;;10.20;;
35110;SDS011;21290;50.158;8.658;2024-03-02T04:20:15;20.55;;;14.18;;
35110;SDS011;21290;50.158;8.658;2024-03-02T04:22:42;20.73;;;13.35;;
35110;SDS011;21290;50.158;8.658;2024-03-02T04:25:09;18.67;;;13.15;;
35110;SDS011;21290;50.158;8.658;2024-03-02T04:27:35;18.17;;;12.70;;
35110;SDS011;21290;50.158;8.658;2024-03-02T04:30:03;16.23;;;12.43;;
35110;SDS011;21290;50.158;8.658;2024-03-02T04:32:31;20.30;;;13.55;;
35110;SDS011;21290;50.158;8.658;2024-03-02T04:34:58;19.15;;;12.95;;
35110;SDS011;21290;50.158;8.658;2024-03-02T04:37:24;19.80;;;12.48;;
35110;SDS011;21290;50.158;8.658;2024-03-02T04:39:51;17.30;;;12.10;;
35110;SDS011;21290;50.158;8.658;2024-03-02T04:42:18;20.48;;;13.00;;
35110;SDS011;21290;50.158;8.658;2024-03-02T04:44:44;18.02;;;12.77;;
35110;SDS011;21290;50.158;8.658;2024-03-02T04:47:11;18.80;;;12.52;;
35110;SDS011;21290;50.158;8.658;2024-03-02T04:49:38;17.58;;;12.02;;
35110;SDS011;21290;50.158;8.658;2024-03-02T04:52:05;19.77;;;13.27;;
35110;SDS011;21290;50.158;8.658;2024-03-02T04:54:32;17.58;;;12.30;;
35110;SDS011;21290;50.158;8.658;2024-03-02T04:57:01;24.40;;;13.18;;
35110;SDS011;21290;50.158;8.658;2024-03-02T04:59:27;20.60;;;13.52;;
35110;SDS011;21290;50.158;8.658;2024-03-02T05:01:54;19.60;;;13.68;;
35110;SDS011;21290;50.158;8.658;2024-03-02T05:04:21;21.08;;;13.48;;
35110;SDS011;21290;50.158;8.658;2024-03-02T05:06:48;19.50;;;14.32;;
35110;SDS011;21290;50.158;8.658;2024-03-02T05:09:19;20.42;;;13.57;;
35110;SDS011;21290;50.158;8.658;2024-03-02T05:11:45;22.98;;;14.60;;
35110;SDS011;21290;50.158;8.658;2024-03-02T05:14:25;23.20;;;14.90;;
35110;SDS011;21290;50.158;8.658;2024-03-02T05:16:52;21.58;;;15.02;;
35110;SDS011;21290;50.158;8.658;2024-03-02T05:19:18;24.25;;;15.15;;
35110;SDS011;21290;50.158;8.658;2024-03-02T05:21:45;21.13;;;14.70;;
35110;SDS011;21290;50.158;8.658;2024-03-02T05:24:12;22.25;;;14.90;;
35110;SDS011;21290;50.158;8.658;2024-03-02T05:26:38;23.23;;;15.48;;
35110;SDS011;21290;50.158;8.658;2024-03-02T05:29:05;23.42;;;15.65;;
35110;SDS011;21290;50.158;8.658;2024-03-02T05:31:32;22.90;;;15.65;;
35110;SDS011;21290;50.158;8.658;2024-03-02T05:33:59;27.02;;;16.17;;
35110;SDS011;21290;50.158;8.658;2024-03-02T05:36:26;24.83;;;16.15;;
35110;SDS011;21290;50.158;8.658;2024-03-02T05:38:52;25.80;;;16.35;;
35110;SDS011;21290;50.158;8.658;2024-03-02T05:41:19;24.45;;;15.68;;
35110;SDS011;21290;50.158;8.658;2024-03-02T05:43:46;24.27;;;15.93;;
35110;SDS011;21290;50.158;8.658;2024-03-02T05:46:13;28.92;;;17.95;;
35110;SDS011;21290;50.158;8.658;2024-03-02T05:48:40;24.35;;;16.60;;
35110;SDS011;21290;50.158;8.658;2024-03-02T05:51:06;26.55;;;15.77;;
35110;SDS011;21290;50.158;8.658;2024-03-02T05:53:33;26.23;;;16.15;;
35110;SDS011;21290;50.158;8.658;2024-03-02T05:56:00;27.33;;;17.42;;
35110;SDS011;21290;50.158;8.658;2024-03-02T05:58:30;29.70;;;16.77;;
35110;SDS011;21290;50.158;8.658;2024-03-02T06:01:09;26.35;;;17.58;;
35110;SDS011;21290;50.158;8.658;2024-03-02T06:03:36;30.10;;;17.70;;
35110;SDS011;21290;50.158;8.658;2024-03-02T06:06:03;29.38;;;17.77;;
35110;SDS011;21290;50.158;8.658;2024-03-02T06:08:30;30.02;;;19.30;;
35110;SDS011;21290;50.158;8.658;2024-03-02T06:10:57;29.65;;;18.20;;
35110;SDS011;21290;50.158;8.658;2024-03-02T06:13:24;33.55;;;18.52;;
35110;SDS011;21290;50.158;8.658;2024-03-02T06:15:52;29.33;;;18.93;;
35110;SDS011;21290;50.158;8.658;2024-03-02T06:18:19;31.48;;;19.20;;
35110;SDS011;21290;50.158;8.658;2024-03-02T06:20:46;31.17;;;19.00;;
35110;SDS011;21290;50.158;8.658;2024-03-02T06:23:13;32.13;;;18.52;;
35110;SDS011;21290;50.158;8.658;2024-03-02T06:25:39;35.72;;;19.08;;
35110;SDS011;21290;50.158;8.658;2024-03-02T06:28:06;29.20;;;18.33;;
35110;SDS011;21290;50.158;8.658;2024-03-02T06:30:33;31.67;;;19.13;;
35110;SDS011;21290;50.158;8.658;2024-03-02T06:33:00;29.83;;;18.63;;
35110;SDS011;21290;50.158;8.658;2024-03-02T06:35:27;28.85;;;18.80;;
35110;SDS011;21290;50.158;8.658;2024-03-02T06:37:54;30.90;;;20.13;;
35110;SDS011;21290;50.158;8.658;2024-03-02T06:40:20;30.98;;;19.83;;
35110;SDS011;21290;50.158;8.658;2024-03-02T06:42:48;29.65;;;18.38;;
35110;SDS011;21290;50.158;8.658;2024-03-02T06:45:14;29.15;;;18.17;;
35110;SDS011;21290;50.158;8.658;2024-03-02T06:47:41;25.63;;;17.60;;
35110;SDS011;21290;50.158;8.658;2024-03-02T06:50:08;28.20;;;17.60;;
35110;SDS011;21290;50.158;8.658;2024-03-02T06:52:35;25.38;;;17.48;;
35110;SDS011;21290;50.158;8.658;2024-03-02T06:55:02;24.75;;;16.40;;
35110;SDS011;21290;50.158;8.658;2024-03-02T06:57:30;24.70;;;16.50;;
35110;SDS011;21290;50.158;8.658;2024-03-02T06:59:58;21.80;;;15.38;;
35110;SDS011;21290;50.158;8.658;2024-03-02T07:02:25;20.10;;;15.55;;
35110;SDS011;21290;50.158;8.658;2024-03-02T07:04:53;23.10;;;15.95;;
35110;SDS011;21290;50.158;8.658;2024-03-02T07:07:20;22.25;;;15.77;;
35110;SDS011;21290;50.158;8.658;2024-03-02T07:09:47;22.60;;;16.25;;
35110;SDS011;21290;50.158;8.658;2024-03-02T07:12:16;24.70;;;15.60;;
35110;SDS011;21290;50.158;8.658;2024-03-02T07:14:43;23.92;;;16.10;;
35110;SDS011;21290;50.158;8.658;2024-03-02T07:17:29;23.23;;;16.38;;
35110;SDS011;21290;50.158;8.658;2024-03-02T07:19:57;25.20;;;16.05;;
35110;SDS011;21290;50.158;8.658;2024-03-02T07:22:24;21.23;;;15.00;;
35110;SDS011;21290;50.158;8.658;2024-03-02T07:24:50;25.75;;;15.52;;
35110;SDS011;21290;50.158;8.658;2024-03-02T07:27:17;25.83;;;16.10;;
35110;SDS011;21290;50.158;8.658;2024-03-02T07:29:44;28.65;;;16.67;;
35110;SDS011;21290;50.158;8.658;2024-03-02T07:32:11;29.23;;;20.85;;
35110;SDS011;21290;50.158;8.658;2024-03-02T07:34:37;36.78;;;23.17;;
35110;SDS011;21290;50.158;8.658;2024-03-02T07:37:04;27.80;;;19.77;;
35110;SDS011;21290;50.158;8.658;2024-03-02T07:39:31;24.73;;;17.30;;
35110;SDS011;21290;50.158;8.658;2024-03-02T07:41:59;25.65;;;17.00;;
35110;SDS011;21290;50.158;8.658;2024-03-02T07:44:26;31.15;;;20.92;;
35110;SDS011;21290;50.158;8.658;2024-03-02T07:46:53;32.10;;;23.83;;
35110;SDS011;21290;50.158;8.658;2024-03-02T07:49:19;28.42;;;21.75;;
35110;SDS011;21290;50.158;8.658;2024-03-02T07:51:46;26.35;;;17.83;;
35110;SDS011;21290;50.158;8.658;2024-03-02T07:54:13;25.05;;;16.67;;
35110;SDS011;21290;50.158;8.658;2024-03-02T07:56:40;21.13;;;15.02;;
35110;SDS011;21290;50.158;8.658;2024-03-02T07:59:07;20.70;;;13.25;;
35110;SDS011;21290;50.158;8.658;2024-03-02T08:01:33;19.35;;;13.43;;
35110;SDS011;21290;50.158;8.658;2024-03-02T08:04:01;17.25;;;13.00;;
35110;SDS011;21290;50.158;8.658;2024-03-02T08:06:29;17.52;;;12.63;;
35110;SDS011;21290;50.158;8.658;2024-03-02T08:08:57;19.90;;;13.27;;
35110;SDS011;21290;50.158;8.658;2024-03-02T08:11:24;16.42;;;12.48;;
35110;SDS011;21290;50.158;8.658;2024-03-02T08:13:51;17.10;;;12.60;;
35110;SDS011;21290;50.158;8.658;2024-03-02T08:16:21;18.73;;;12.80;;
35110;SDS011;21290;50.158;8.658;2024-03-02T08:18:49;22.05;;;12.35;;
35110;SDS011;21290;50.158;8.658;2024-03-02T08:21:16;20.40;;;12.70;;
35110;SDS011;21290;50.158;8.658;2024-03-02T08:23:43;15.70;;;12.60;;
35110;SDS011;21290;50.158;8.658;2024-03-02T08:26:10;17.23;;;13.23;;
35110;SDS011;21290;50.158;8.658;2024-03-02T08:28:38;18.88;;;13.30;;
35110;SDS011;21290;50.158;8.658;2024-03-02T08:31:08;16.58;;;13.15;;
35110;SDS011;21290;50.158;8.658;2024-03-02T08:33:35;21.05;;;13.85;;
35110;SDS011;21290;50.158;8.658;2024-03-02T08:36:04;20.07;;;13.47;;
35110;SDS011;21290;50.158;8.658;2024-03-02T08:38:31;16.77;;;13.25;;
35110;SDS011;21290;50.158;8.658;2024-03-02T08:40:57;16.25;;;13.13;;
35110;SDS011;21290;50.158;8.658;2024-03-02T08:43:24;18.48;;;12.60;;
35110;SDS011;21290;50.158;8.658;2024-03-02T08:45:51;17.63;;;14.30;;
35110;SDS011;21290;50.158;8.658;2024-03-02T08:48:18;19.27;;;13.80;;
35110;SDS011;21290;50.158;8.658;2024-03-02T08:50:46;17.40;;;14.00;;
35110;SDS011;21290;50.158;8.658;2024-03-02T08:53:13;19.42;;;14.88;;
35110;SDS011;21290;50.158;8.658;2024-03-02T08:55:45;17.92;;;14.32;;
35110;SDS011;21290;50.158;8.658;2024-03-02T08:58:12;19.42;;;13.75;;
35110;SDS011;21290;50.158;8.658;2024-03-02T09:00:39;19.58;;;15.00;;
35110;SDS011;21290;50.158;8.658;2024-03-02T09:03:07;25.05;;;15.32;;
35110;SDS011;21290;50.158;8.658;2024-03-02T09:05:34;20.13;;;15.35;;
35110;SDS011;21290;50.158;8.658;2024-03-02T09:08:01;20.77;;;14.60;;
35110;SDS011;21290;50.158;8.658;2024-03-02T09:10:29;20.30;;;14.45;;
35110;SDS011;21290;50.158;8.658;2024-03-02T09:12:56;21.13;;;14.90;;
35110;SDS011;21290;50.158;8.658;2024-03-02T09:15:23;22.02;;;15.60;;
35110;SDS011;21290;50.158;8.658;2024-03-02T09:17:49;19.02;;;14.43;;
35110;SDS011;21290;50.158;8.658;2024-03-02T09:20:16;21.35;;;14.98;;
35110;SDS011;21290;50.158;8.658;2024-03-02T09:22:43;21.90;;;14.68;;
35110;SDS011;21290;50.158;8.658;2024-03-02T09:25:09;17.05;;;13.93;;
35110;SDS011;21290;50.158;8.658;2024-03-02T09:27:37;17.90;;;13.32;;
35110;SDS011;21290;50.158;8.658;2024-03-02T09:30:07;16.42;;;13.20;;
35110;SDS011;21290;50.158;8.658;2024-03-02T09:32:34;21.38;;;14.18;;
35110;SDS011;21290;50.158;8.658;2024-03-02T09:35:02;15.68;;;13.07;;
35110;SDS011;21290;50.158;8.658;2024-03-02T09:37:29;16.05;;;13.32;;
35110;SDS011;21290;50.158;8.658;2024-03-02T09:39:56;19.50;;;12.95;;
35110;SDS011;21290;50.158;8.658;2024-03-02T09:42:23;21.83;;;13.20;;
35110;SDS011;21290;50.158;8.658;2024-03-02T09:44:50;19.75;;;13.65;;
35110;SDS011;21290;50.158;8.658;2024-03-02T09:47:17;15.45;;;12.95;;
35110;SDS011;21290;50.158;8.658;2024-03-02T09:49:44;19.65;;;13.68;;
35110;SDS011;21290;50.158;8.658;2024-03-02T09:52:11;16.38;;;12.75;;
35110;SDS011;21290;50.158;8.658;2024-03-02T09:54:40;17.45;;;12.73;;
35110;SDS011;21290;50.158;8.658;2024-03-02T09:57:07;17.40;;;12.45;;
35110;SDS011;21290;50.158;8.658;2024-03-02T09:59:35;16.77;;;12.48;;
35110;SDS011;21290;50.158;8.658;2024-03-02T10:02:02;14.95;;;11.20;;
35110;SDS011;21290;50.158;8.658;2024-03-02T10:04:29;15.32;;;11.65;;
35110;SDS011;21290;50.158;8.658;2024-03-02T10:07:19;15.80;;;11.15;;
35110;SDS011;21290;50.158;8.658;2024-03-02T10:09:47;14.13;;;11.60;;
35110;SDS011;21290;50.158;8.658;2024-03-02T10:12:15;13.88;;;10.73;;
35110;SDS011;21290;50.158;8.658;2024-03-02T10:14:43;14.65;;;10.85;;
35110;SDS011;21290;50.158;8.658;2024-03-02T10:17:12;12.07;;;9.73;;
35110;SDS011;21290;50.158;8.658;2024-03-02T10:19:39;13.85;;;9.88;;
35110;SDS011;21290;50.158;8.658;2024-03-02T10:22:07;13.63;;;10.02;;
35110;SDS011;21290;50.158;8.658;2024-03-02T10:24:36;12.75;;;10.20;;
35110;SDS011;21290;50.158;8.658;2024-03-02T10:27:14;17.13;;;10.07;;
35110;SDS011;21290;50.158;8.658;2024-03-02T10:29:45;10.98;;;8.80;;
35110;SDS011;21290;50.158;8.658;2024-03-02T10:32:13;11.30;;;8.95;;
35110;SDS011;21290;50.158;8.658;2024-03-02T10:34:40;10.15;;;8.52;;
35110;SDS011;21290;50.158;8.658;2024-03-02T10:37:07;8.63;;;7.70;;
35110;SDS011;21290;50.158;8.658;2024-03-02T10:39:35;10.82;;;7.80;;
35110;SDS011;21290;50.158;8.658;2024-03-02T10:42:02;8.75;;;7.63;;
35110;SDS011;21290;50.158;8.658;2024-03-02T10:44:30;10.05;;;7.57;;
35110;SDS011;21290;50.158;8.658;2024-03-02T10:46:57;11.13;;;7.47;;
35110;SDS011;21290;50.158;8.658;2024-03-02T10:49:30;10.70;;;8.43;;
35110;SDS011;21290;50.158;8.658;2024-03-02T10:51:58;8.93;;;8.02;;
35110;SDS011;21290;50.158;8.658;2024-03-02T10:54:26;13.93;;;8.95;;
35110;SDS011;21290;50.158;8.658;2024-03-02T10:56:55;10.77;;;9.18;;
35110;SDS011;21290;50.158;8.658;2024-03-02T10:59:27;10.23;;;9.02;;
35110;SDS011;21290;50.158;8.658;2024-03-02T11:01:58;10.30;;;8.52;;
35110;SDS011;21290;50.158;8.658;2024-03-02T11:04:31;10.02;;;9.02;;
35110;SDS011;21290;50.158;8.658;2024-03-02T11:07:05;10.35;;;8.98;;
35110;SDS011;21290;50.158;8.658;2024-03-02T11:09:34;9.85;;;8.23;;
35110;SDS011;21290;50.158;8.658;2024-03-02T11:14:55;10.23;;;7.75;;
35110;SDS011;21290;50.158;8.658;2024-03-02T11:17:22;10.40;;;8.13;;
35110;SDS011;21290;50.158;8.658;2024-03-02T11:19:50;10.25;;;7.80;;
35110;SDS011;21290;50.158;8.658;2024-03-02T11:22:17;10.27;;;7.90;;
35110;SDS011;21290;50.158;8.658;2024-03-02T11:24:49;9.67;;;7.80;;
35110;SDS011;21290;50.158;8.658;2024-03-02T11:33:04;9.23;;;7.35;;
35110;SDS011;21290;50.158;8.658;2024-03-02T11:35:37;7.93;;;7.00;;
35110;SDS011;21290;50.158;8.658;2024-03-02T11:38:08;9.02;;;7.30;;
35110;SDS011;21290;50.158;8.658;2024-03-02T11:40:36;7.07;;;6.38;;
35110;SDS011;21290;50.158;8.658;2024-03-02T11:43:05;7.75;;;6.85;;
35110;SDS011;21290;50.158;8.658;2024-03-02T11:45:32;11.63;;;6.65;;
35110;SDS011;21290;50.158;8.658;2024-03-02T11:48:00;10.05;;;6.93;;
35110;SDS011;21290;50.158;8.658;2024-03-02T11:50:28;7.93;;;6.55;;
35110;SDS011;21290;50.158;8.658;2024-03-02T11:52:58;11.77;;;6.50;;
35110;SDS011;21290;50.158;8.658;2024-03-02T11:55:26;10.00;;;7.03;;
35110;SDS011;21290;50.158;8.658;2024-03-02T11:57:52;8.60;;;6.05;;
35110;SDS011;21290;50.158;8.658;2024-03-02T12:00:20;6.63;;;6.00;;
35110;SDS011;21290;50.158;8.658;2024-03-02T12:03:03;8.75;;;5.85;;
35110;SDS011;21290;50.158;8.658;2024-03-02T12:05:34;7.68;;;6.28;;
35110;SDS011;21290;50.158;8.658;2024-03-02T12:08:03;7.97;;;6.53;;
35110;SDS011;21290;50.158;8.658;2024-03-02T12:10:30;7.82;;;7.00;;
35110;SDS011;21290;50.158;8.658;2024-03-02T12:13:05;8.32;;;6.97;;
35110;SDS011;21290;50.158;8.658;2024-03-02T12:15:34;8.38;;;7.38;;
35110;SDS011;21290;50.158;8.658;2024-03-02T12:18:05;8.55;;;7.22;;
35110;SDS011;21290;50.158;8.658;2024-03-02T12:20:32;15.48;;;7.50;;
35110;SDS011;21290;50.158;8.658;2024-03-02T12:23:00;9.70;;;7.55;;
35110;SDS011;21290;50.158;8.658;2024-03-02T12:25:29;9.57;;;7.15;;
35110;SDS011;21290;50.158;8.658;2024-03-02T12:27:59;10.50;;;7.40;;
35110;SDS011;21290;50.158;8.658;2024-03-02T12:30:29;8.38;;;7.20;;
35110;SDS011;21290;50.158;8.658;2024-03-02T12:32:56;9.02;;;7.28;;
35110;SDS011;21290;50.158;8.658;2024-03-02T12:35:24;9.07;;;6.82;;
35110;SDS011;21290;50.158;8.658;2024-03-02T12:37:51;8.68;;;6.65;;
35110;SDS011;21290;50.158;8.658;2024-03-02T12:40:19;8.55;;;6.90;;
35110;SDS011;21290;50.158;8.658;2024-03-02T12:45:16;9.02;;;6.70;;
35110;SDS011;21290;50.158;8.658;2024-03-02T12:47:51;10.13;;;7.20;;
35110;SDS011;21290;50.158;8.658;2024-03-02T12:50:18;11.57;;;7.40;;
35110;SDS011;21290;50.158;8.658;2024-03-02T12:52:50;11.73;;;7.30;;
35110;SDS011;21290;50.158;8.658;2024-03-02T12:55:19;11.90;;;7.32;;
35110;SDS011;21290;50.158;8.658;2024-03-02T12:57:47;10.35;;;6.70;;
35110;SDS011;21290;50.158;8.658;2024-03-02T13:00:17;8.73;;;6.93;;
35110;SDS011;21290;50.158;8.658;2024-03-02T13:02:45;8.00;;;6.50;;
35110;SDS011;21290;50.158;8.658;2024-03-02T13:05:12;9.48;;;6.30;;
35110;SDS011;21290;50.158;8.658;2024-03-02T13:07:40;10.23;;;6.32;;
35110;SDS011;21290;50.158;8.658;2024-03-02T13:10:12;8.38;;;6.40;;
35110;SDS011;21290;50.158;8.658;2024-03-02T13:12:39;8.35;;;6.20;;
35110;SDS011;21290;50.158;8.658;2024-03-02T13:15:06;7.30;;;5.75;;
35110;SDS011;21290;50.158;8.658;2024-03-02T13:17:34;6.83;;;5.37;;
35110;SDS011;21290;50.158;8.658;2024-03-02T13:20:04;7.22;;;5.15;;
35110;SDS011;21290;50.158;8.658;2024-03-02T13:22:34;10.82;;;5.28;;
35110;SDS011;21290;50.158;8.658;2024-03-02T13:25:01;9.55;;;5.40;;
35110;SDS011;21290;50.158;8.658;2024-03-02T13:27:32;7.50;;;5.20;;
35110;SDS011;21290;50.158;8.658;2024-03-02T13:30:01;5.07;;;4.57;;
35110;SDS011;21290;50.158;8.658;2024-03-02T13:32:29;6.47;;;4.80;;
35110;SDS011;21290;50.158;8.658;2024-03-02T13:34:56;7.32;;;4.75;;
35110;SDS011;21290;50.158;8.658;2024-03-02T13:37:22;6.35;;;4.80;;
35110;SDS011;21290;50.158;8.658;2024-03-02T13:39:49;8.55;;;4.50;;
35110;SDS011;21290;50.158;8.658;2024-03-02T13:42:16;8.95;;;4.85;;
35110;SDS011;21290;50.158;8.658;2024-03-02T13:44:43;7.20;;;4.47;;
35110;SDS011;21290;50.158;8.658;2024-03-02T13:47:15;5.00;;;3.92;;
35110;SDS011;21290;50.158;8.658;2024-03-02T13:49:42;7.15;;;3.97;;
35110;SDS011;21290;50.158;8.658;2024-03-02T13:52:13;7.10;;;4.20;;
35110;SDS011;21290;50.158;8.658;2024-03-02T13:54:41;6.95;;;4.03;;
35110;SDS011;21290;50.158;8.658;2024-03-02T13:57:13;4.97;;;4.18;;
35110;SDS011;21290;50.158;8.658;2024-03-02T13:59:40;7.38;;;4.10;;
35110;SDS011;21290;50.158;8.658;2024-03-02T14:02:08;5.68;;;4.00;;
35110;SDS011;21290;50.158;8.658;2024-03-02T14:04:35;5.53;;;3.28;;
35110;SDS011;21290;50.158;8.658;2024-03-02T14:07:04;4.43;;;3.93;;
35110;SDS011;21290;50.158;8.658;2024-03-02T14:09:33;5.50;;;3.70;;
35110;SDS011;21290;50.158;8.658;2024-03-02T14:12:00;7.07;;;3.60;;
35110;SDS011;21290;50.158;8.658;2024-03-02T14:14:29;4.70;;;3.80;;
35110;SDS011;21290;50.158;8.658;2024-03-02T14:16:55;5.45;;;3.65;;
35110;SDS011;21290;50.158;8.658;2024-03-02T14:19:26;4.93;;;3.20;;
35110;SDS011;21290;50.158;8.658;2024-03-02T14:21:53;4.78;;;3.33;;
35110;SDS011;21290;50.158;8.658;2024-03-02T14:24:20;6.55;;;3.10;;
35110;SDS011;21290;50.158;8.658;2024-03-02T14:26:50;5.78;;;3.15;;
35110;SDS011;21290;50.158;8.658;2024-03-02T14:29:18;4.45;;;3.00;;
35110;SDS011;21290;50.158;8.658;2024-03-02T14:31:45;3.70;;;2.83;;
35110;SDS011;21290;50.158;8.658;2024-03-02T14:34:14;6.32;;;3.40;;
35110;SDS011;21290;50.158;8.658;2024-03-02T14:36:41;4.50;;;2.83;;
35110;SDS011;21290;50.158;8.658;2024-03-02T14:39:10;4.72;;;3.50;;
35110;SDS011;21290;50.158;8.658;2024-03-02T14:41:37;6.28;;;3.22;;
35110;SDS011;21290;50.158;8.658;2024-03-02T14:44:04;3.92;;;2.90;;
35110;SDS011;21290;50.158;8.658;2024-03-02T14:46:30;5.50;;;2.80;;
35110;SDS011;21290;50.158;8.658;2024-03-02T14:48:57;3.75;;;2.88;;
35110;SDS011;21290;50.158;8.658;2024-03-02T14:51:24;5.13;;;3.10;;